Time;durP1;ratioP1;P1;durP2;ratioP2;P2;SDS_P1;SDS_P2;PMS_P1;PMS_P2;Temp;Humidity;BMP_temperature;BMP_pressure;BME280_temperature;BME280_humidity;BME280_pressure;Samples;Min_cycle;Max_cycle;Signal;HPM_P1;HPM_P2
2022/03/10 00:00:27;;;;;;;13.60;7.50;;;;;;;-1.29;54.93;101082.40;116964;1187;24125;-62
2022/03/10 00:02:56;;;;;;;17.80;9.30;;;;;;;-1.30;55.17;101085.09;116958;1188;21850;-50
2022/03/10 00:05:26;;;;;;;17.70;9.60;;;;;;;-1.31;54.93;101086.95;116930;1188;23472;-49
2022/03/10 00:07:54;;;;;;;12.50;6.90;;;;;;;-1.31;54.90;101085.88;117045;1188;21938;-50
2022/03/10 00:10:23;;;;;;;12.50;6.90;;;;;;;-1.31;54.94;101086.23;116934;1188;23454;-51
2022/03/10 00:12:52;;;;;;;10.60;6.40;;;;;;;-1.33;55.09;101086.17;116928;1188;22930;-62
2022/03/10 00:15:22;;;;;;;11.30;6.50;;;;;;;-1.32;54.88;101084.83;116980;1183;21924;-49
2022/03/10 00:17:51;;;;;;;9.50;6.00;;;;;;;-1.32;54.96;101082.25;116853;1189;21847;-62
2022/03/10 00:20:21;;;;;;;9.60;5.60;;;;;;;-1.35;54.90;101079.04;116941;1189;22323;-49
2022/03/10 00:22:51;;;;;;;9.00;6.00;;;;;;;-1.37;54.99;101080.30;116805;1189;21952;-49
2022/03/10 00:25:19;;;;;;;;;;;;;;;-1.39;54.91;101082.46;116833;1189;22979;-50
2022/03/10 00:27:48;;;;;;;9.60;5.90;;;;;;;-1.40;55.00;101080.52;116870;1189;23887;-60
2022/03/10 00:30:16;;;;;;;10.70;6.40;;;;;;;-1.41;54.93;101088.00;116963;1188;22654;-50
2022/03/10 00:32:49;;;;;;;10.10;6.50;;;;;;;-1.43;54.98;101088.08;116897;1189;23576;-61
2022/03/10 00:35:19;;;;;;;11.40;6.90;;;;;;;-1.46;55.09;101088.64;116976;1189;22899;-62
2022/03/10 00:37:54;;;;;;;10.40;5.90;;;;;;;-1.52;54.90;101087.19;116873;1188;23560;-49
2022/03/10 00:40:23;;;;;;;10.00;6.00;;;;;;;-1.58;54.84;101089.62;116980;1188;22642;-48
2022/03/10 00:42:51;;;;;;;10.80;6.50;;;;;;;-1.64;54.89;101092.44;116942;1188;24175;-48
2022/03/10 00:45:20;;;;;;;9.10;6.00;;;;;;;-1.69;54.83;101089.47;116919;1188;22832;-61
2022/03/10 00:47:52;;;;;;;9.00;5.80;;;;;;;-1.73;54.87;101091.34;116905;1188;22620;-61
2022/03/10 00:50:23;;;;;;;8.90;5.80;;;;;;;-1.75;54.98;101092.59;116932;1188;22996;-48
2022/03/10 00:52:52;;;;;;;9.20;5.90;;;;;;;-1.77;54.92;101093.70;116910;1188;23455;-48
2022/03/10 00:55:20;;;;;;;9.20;5.70;;;;;;;-1.81;54.86;101094.21;116946;1188;23459;-51
2022/03/10 00:57:49;;;;;;;9.40;6.40;;;;;;;-1.85;54.91;101090.92;116915;1189;21867;-48
2022/03/10 01:00:18;;;;;;;10.50;6.00;;;;;;;-1.87;54.90;101088.73;116919;1189;21848;-48
2022/03/10 01:02:47;;;;;;;10.20;6.40;;;;;;;-1.90;54.69;101091.85;116972;1188;23474;-62
2022/03/10 01:05:15;;;;;;;10.80;6.20;;;;;;;-1.93;54.82;101088.45;116891;1188;24252;-50
2022/03/10 01:07:44;;;;;;;13.00;7.90;;;;;;;-1.91;54.96;101089.05;116907;1189;23459;-49
2022/03/10 01:10:14;;;;;;;9.30;6.00;;;;;;;-1.89;54.87;101088.46;116923;1188;21907;-62
2022/03/10 01:13:03;;;;;;;10.80;6.70;;;;;;;-1.89;55.01;101084.17;116894;1188;22718;-62
2022/03/10 01:15:33;;;;;;;12.30;7.30;;;;;;;-1.89;54.85;101085.70;116907;1188;21861;-49
2022/03/10 01:18:02;;;;;;;11.70;7.10;;;;;;;-1.91;54.83;101083.90;116913;1188;23587;-63
2022/03/10 01:20:31;;;;;;;14.00;7.70;;;;;;;-1.90;54.95;101088.25;116938;1190;23810;-61
2022/03/10 01:23:00;;;;;;;16.60;9.20;;;;;;;-1.91;54.85;101090.92;116980;1188;21855;-62
2022/03/10 01:25:28;;;;;;;15.90;8.30;;;;;;;-1.92;54.87;101092.28;116908;1191;22929;-48
2022/03/10 01:27:58;;;;;;;18.40;9.20;;;;;;;-1.93;54.71;101094.96;117075;1188;23454;-50
2022/03/10 01:30:27;;;;;;;19.90;8.70;;;;;;;-1.95;54.86;101098.14;116966;1188;23475;-62
2022/03/10 01:32:56;;;;;;;19.50;10.00;;;;;;;-1.98;54.83;101098.69;116935;1188;23476;-62
2022/03/10 01:35:24;;;;;;;17.60;10.00;;;;;;;-2.01;54.76;101102.14;116992;1188;23590;-49
2022/03/10 01:37:53;;;;;;;16.50;9.50;;;;;;;-2.05;54.83;101102.27;117043;1188;22887;-48
2022/03/10 01:40:21;;;;;;;14.30;9.00;;;;;;;-2.08;54.81;101102.48;116982;1188;23451;-62
2022/03/10 01:42:50;;;;;;;14.90;8.00;;;;;;;-2.10;54.78;101107.20;116924;1188;23454;-49
2022/03/10 01:45:18;;;;;;;16.20;8.00;;;;;;;-2.11;54.89;101106.63;116977;1189;23476;-49
2022/03/10 01:47:47;;;;;;;15.80;8.80;;;;;;;-2.13;54.79;101110.69;116912;1188;23453;-49
2022/03/10 01:50:15;;;;;;;15.60;8.60;;;;;;;-2.18;54.71;101113.02;116960;1188;21967;-62
2022/03/10 01:52:44;;;;;;;14.10;8.70;;;;;;;-2.21;54.77;101116.11;116931;1188;23452;-49
2022/03/10 01:55:14;;;;;;;13.40;8.30;;;;;;;-2.26;54.65;101124.67;116954;1188;21999;-48
2022/03/10 01:57:43;;;;;;;13.50;8.00;;;;;;;-2.29;54.68;101124.29;117013;1188;23450;-49
2022/03/10 02:00:13;;;;;;;10.90;6.80;;;;;;;-2.32;54.69;101128.63;116877;1189;21853;-48
2022/03/10 02:02:43;;;;;;;12.80;7.70;;;;;;;-2.34;54.69;101126.08;116952;1188;21928;-62
2022/03/10 02:05:13;;;;;;;14.80;8.30;;;;;;;-2.35;54.84;101128.60;116958;1188;23688;-48
2022/03/10 02:10:31;;;;;;;13.40;7.70;;;;;;;-2.37;54.79;101128.16;116952;1189;23479;-60
2022/03/10 02:13:01;;;;;;;14.20;8.50;;;;;;;-2.38;54.82;101132.80;116890;1188;21857;-48
2022/03/10 02:18:21;;;;;;;11.70;7.30;;;;;;;-2.40;54.88;101138.17;116913;1188;22322;-48
2022/03/10 02:20:50;;;;;;;15.60;9.00;;;;;;;-2.40;54.81;101141.09;116975;1188;23453;-48
2022/03/10 02:23:19;;;;;;;12.70;7.50;;;;;;;-2.43;54.90;101146.27;116981;1188;21897;-62
2022/03/10 02:25:47;;;;;;;15.40;9.00;;;;;;;-2.46;54.80;101148.88;116888;1189;21901;-48
2022/03/10 02:28:18;;;;;;;13.50;9.10;;;;;;;-2.48;54.78;101149.59;116852;1189;22940;-49
2022/03/10 02:30:46;;;;;;;14.70;8.60;;;;;;;-2.51;54.81;101149.61;116952;1188;21863;-62
2022/03/10 02:33:14;;;;;;;12.50;7.90;;;;;;;-2.52;54.82;101150.94;116911;1188;21850;-49
2022/03/10 02:35:44;;;;;;;18.60;8.70;;;;;;;-2.56;54.76;101151.11;116950;1188;22001;-62
2022/03/10 02:38:18;;;;;;;13.50;7.50;;;;;;;-2.58;54.83;101156.63;116817;1189;24248;-49
2022/03/10 02:40:47;;;;;;;13.90;8.20;;;;;;;-2.63;54.96;101159.44;116954;1188;23475;-49
2022/03/10 02:43:19;;;;;;;13.50;7.90;;;;;;;-2.63;55.08;101157.91;116951;1189;23551;-63
2022/03/10 02:45:47;;;;;;;11.90;7.50;;;;;;;-2.64;55.05;101158.91;116946;1189;21852;-62
2022/03/10 02:48:16;;;;;;;10.90;6.80;;;;;;;-2.65;55.10;101156.80;116931;1189;23653;-49
2022/03/10 02:50:45;;;;;;;12.70;6.80;;;;;;;-2.63;55.21;101161.66;116978;1189;21854;-49
2022/03/10 02:53:15;;;;;;;14.10;7.70;;;;;;;-2.58;55.25;101160.08;116840;1189;22933;-62
2022/03/10 02:55:44;;;;;;;;;;;;;;;-2.56;55.25;101163.13;116867;1189;22555;-62
2022/03/10 02:58:12;;;;;;;13.30;8.60;;;;;;;-2.56;55.20;101165.70;116830;1189;22989;-49
2022/03/10 03:00:41;;;;;;;17.00;8.10;;;;;;;-2.55;55.14;101166.08;116921;1189;21862;-48
2022/03/10 03:03:09;;;;;;;14.10;8.50;;;;;;;-2.56;55.14;101165.70;117000;1188;23467;-62
2022/03/10 03:05:38;;;;;;;14.10;7.70;;;;;;;-2.57;55.15;101169.42;117073;1188;21880;-48
2022/03/10 03:08:08;;;;;;;12.90;7.70;;;;;;;-2.57;55.30;101170.30;116991;1184;23484;-49
2022/03/10 03:10:36;;;;;;;14.50;8.10;;;;;;;-2.56;55.22;101171.89;116859;1186;21854;-57
2022/03/10 03:13:06;;;;;;;16.10;9.00;;;;;;;-2.54;55.24;101173.69;117002;1189;22967;-48
2022/03/10 03:15:36;;;;;;;15.70;8.80;;;;;;;-2.54;55.26;101176.12;116931;1188;22933;-62
2022/03/10 03:18:04;;;;;;;20.30;9.90;;;;;;;-2.51;55.26;101176.42;116899;1188;23590;-63
2022/03/10 03:20:33;;;;;;;14.40;9.60;;;;;;;-2.46;55.33;101178.92;117073;1188;23251;-63
2022/03/10 03:23:03;;;;;;;14.70;8.90;;;;;;;-2.41;55.30;101176.98;116939;1188;23006;-63
2022/03/10 03:25:31;;;;;;;15.10;8.60;;;;;;;-2.34;55.48;101181.96;116951;1188;23102;-49
2022/03/10 03:28:00;;;;;;;12.70;7.90;;;;;;;-2.27;55.48;101187.67;117015;1189;21857;-49
2022/03/10 03:30:29;;;;;;;13.20;8.50;;;;;;;-2.20;55.49;101185.96;116879;1189;21865;-49
2022/03/10 03:32:58;;;;;;;14.30;7.70;;;;;;;-2.15;55.53;101191.75;116921;1189;23459;-63
2022/03/10 03:35:26;;;;;;;13.70;8.90;;;;;;;-2.08;55.53;101193.11;116839;1189;21901;-49
2022/03/10 03:37:55;;;;;;;14.40;8.20;;;;;;;-2.05;55.52;101196.73;116907;1188;22914;-63
2022/03/10 03:40:24;;;;;;;14.50;8.50;;;;;;;-2.00;55.63;101199.71;116868;1188;23430;-48
2022/03/10 03:42:53;;;;;;;14.30;8.50;;;;;;;-1.96;55.63;101205.12;116910;1188;21840;-50
2022/03/10 03:45:22;;;;;;;13.70;8.20;;;;;;;-1.90;55.79;101201.98;116862;1188;22630;-49
2022/03/10 03:47:51;;;;;;;25.90;9.30;;;;;;;-1.87;55.69;101203.67;116875;1189;21869;-49
2022/03/10 03:50:19;;;;;;;18.00;9.30;;;;;;;-1.82;55.66;101203.58;116901;1189;22649;-49
2022/03/10 03:52:48;;;;;;;15.40;9.00;;;;;;;-1.76;55.66;101207.30;116860;1188;23676;-62
2022/03/10 03:55:16;;;;;;;15.10;9.10;;;;;;;-1.72;55.70;101204.77;116825;1189;21867;-63
2022/03/10 03:57:45;;;;;;;12.40;7.80;;;;;;;-1.68;55.84;101202.71;116877;1189;23584;-50
2022/03/10 04:00:18;;;;;;;12.10;7.80;;;;;;;-1.66;55.66;101206.30;116927;1189;22637;-49
2022/03/10 04:02:47;;;;;;;11.60;7.80;;;;;;;-1.61;55.71;101212.18;116944;1189;22160;-63
2022/03/10 04:05:16;;;;;;;15.00;9.00;;;;;;;-1.57;55.65;101212.58;116882;1189;24190;-49
2022/03/10 04:07:46;;;;;;;13.80;8.90;;;;;;;-1.55;55.70;101212.00;116936;1188;21887;-64
2022/03/10 04:10:16;;;;;;;13.30;8.40;;;;;;;-1.51;55.59;101214.96;116941;1188;23582;-63
2022/03/10 04:12:45;;;;;;;14.30;8.70;;;;;;;-1.51;55.52;101216.85;116907;1188;21853;-49
2022/03/10 04:15:13;;;;;;;14.60;8.90;;;;;;;-1.51;55.62;101219.95;116855;1189;23557;-63
2022/03/10 04:17:43;;;;;;;12.60;8.80;;;;;;;-1.53;55.70;101220.34;116876;1189;21867;-63
2022/03/10 04:20:13;;;;;;;11.50;7.60;;;;;;;-1.54;55.62;101228.56;116907;1188;22932;-49
2022/03/10 04:22:44;;;;;;;11.10;7.20;;;;;;;-1.56;55.44;101233.64;116794;1188;25963;-63
2022/03/10 04:25:13;;;;;;;12.80;8.00;;;;;;;-1.60;55.41;101238.92;117910;1188;23462;-49
2022/03/10 04:27:42;;;;;;;12.30;8.00;;;;;;;-1.68;55.51;101244.41;116914;1189;23463;-49
2022/03/10 04:30:11;;;;;;;13.70;8.30;;;;;;;-1.72;55.43;101247.45;116936;1188;23602;-63
2022/03/10 04:32:44;;;;;;;12.80;8.10;;;;;;;-1.74;55.55;101253.52;116904;1189;23456;-49
2022/03/10 04:35:15;;;;;;;12.60;7.30;;;;;;;-1.77;55.47;101255.95;116908;1188;23555;-63
2022/03/10 04:37:44;;;;;;;14.10;8.00;;;;;;;-1.81;55.37;101259.56;116896;1188;21920;-49
2022/03/10 04:40:13;;;;;;;13.50;8.60;;;;;;;-1.84;55.47;101260.78;116984;1188;23561;-63
2022/03/10 04:42:41;;;;;;;12.40;7.50;;;;;;;-1.86;55.52;101265.65;116874;1186;21873;-49
2022/03/10 04:45:10;;;;;;;13.40;8.10;;;;;;;-1.84;55.61;101267.48;116944;1188;23454;-49
2022/03/10 04:47:41;;;;;;;13.20;8.00;;;;;;;-1.75;55.79;101270.70;116904;1188;21868;-48
2022/03/10 04:50:10;;;;;;;;;;;;;;;-1.64;55.94;101269.70;116884;1189;22940;-64
2022/03/10 04:52:39;;;;;;;16.60;8.50;;;;;;;-1.55;55.89;101276.86;116889;1179;22941;-65
2022/03/10 04:55:10;;;;;;;22.40;8.20;;;;;;;-1.45;55.95;101278.61;116865;1188;24211;-65
2022/03/10 04:57:39;;;;;;;12.60;7.50;;;;;;;-1.38;55.75;101286.02;116867;1189;21906;-64
2022/03/10 05:00:10;;;;;;;14.30;8.40;;;;;;;-1.32;55.93;101289.40;116873;1189;23675;-65
2022/03/10 05:02:40;;;;;;;15.20;7.50;;;;;;;-1.28;55.72;101292.88;116889;1192;21846;-49
2022/03/10 05:05:10;;;;;;;17.90;9.90;;;;;;;-1.24;55.84;101293.29;116828;1188;21896;-65
2022/03/10 05:07:42;;;;;;;19.00;9.40;;;;;;;-1.17;55.63;101292.21;117015;1188;21859;-50
2022/03/10 05:10:12;;;;;;;21.30;9.10;;;;;;;-1.13;55.65;101299.48;117020;1188;22931;-48
2022/03/10 05:13:01;;;;;;;17.10;9.50;;;;;;;-1.15;55.68;101303.01;117078;1189;21852;-62
2022/03/10 05:15:33;;;;;;;14.50;9.70;;;;;;;-1.16;55.59;101312.23;117013;1188;23468;-48
2022/03/10 05:18:03;;;;;;;15.20;9.10;;;;;;;-1.17;55.56;101309.62;116963;1188;21950;-63
2022/03/10 05:20:31;;;;;;;16.30;9.60;;;;;;;-1.16;55.72;101314.69;116997;1189;23046;-48
2022/03/10 05:23:02;;;;;;;15.90;9.50;;;;;;;-1.15;55.66;101319.88;116870;1189;22008;-63
2022/03/10 05:25:36;;;;;;;13.90;8.80;;;;;;;-1.15;55.74;101322.96;116932;1188;22974;-48
2022/03/10 05:28:06;;;;;;;17.00;9.10;;;;;;;-1.15;55.63;101326.42;116889;1188;21946;-63
2022/03/10 05:30:35;;;;;;;14.30;9.40;;;;;;;-1.12;55.61;101325.37;116892;1189;23305;-48
2022/03/10 05:33:03;;;;;;;17.90;10.00;;;;;;;-1.08;55.80;101327.66;116908;1189;22645;-62
2022/03/10 05:35:32;;;;;;;17.80;9.40;;;;;;;-1.02;55.91;101329.98;116850;1189;21876;-63
2022/03/10 05:38:02;;;;;;;17.40;9.80;;;;;;;-0.95;55.69;101327.60;116879;1189;22648;-62
2022/03/10 05:40:32;;;;;;;15.30;9.60;;;;;;;-0.90;55.86;101326.14;116872;1189;23494;-61
2022/03/10 05:43:01;;;;;;;19.00;10.50;;;;;;;-0.85;55.94;101328.27;116857;1189;22975;-62
2022/03/10 05:45:32;;;;;;;16.60;10.50;;;;;;;-0.79;55.97;101328.91;116605;1190;21857;-62
2022/03/10 05:48:01;;;;;;;17.40;10.30;;;;;;;-0.75;55.80;101335.14;116709;1190;23580;-49
2022/03/10 05:50:30;;;;;;;17.30;10.70;;;;;;;-0.73;55.94;101333.68;116836;1189;21864;-63
2022/03/10 05:53:03;;;;;;;15.90;9.60;;;;;;;-0.67;55.94;101338.58;116871;1189;23607;-49
2022/03/10 05:55:33;;;;;;;17.20;10.10;;;;;;;-0.62;56.05;101338.36;116806;1189;24189;-49
2022/03/10 05:58:02;;;;;;;15.60;9.70;;;;;;;-0.54;55.91;101344.72;116832;1189;21864;-64
2022/03/10 06:00:31;;;;;;;17.00;10.80;;;;;;;-0.49;56.12;101348.98;116927;1189;24175;-49
2022/03/10 06:03:00;;;;;;;14.90;9.30;;;;;;;-0.42;56.18;101347.38;116761;1189;22632;-49
2022/03/10 06:05:29;;;;;;;14.60;9.70;;;;;;;-0.35;56.40;101350.46;116796;1189;23458;-63
2022/03/10 06:07:59;;;;;;;15.90;9.50;;;;;;;-0.26;56.07;101350.77;116854;1189;21854;-49
2022/03/10 06:10:29;;;;;;;14.20;9.20;;;;;;;-0.14;56.08;101353.33;116848;1189;21863;-50
2022/03/10 06:13:12;;;;;;;19.70;10.10;;;;;;;-0.03;56.24;101355.59;116763;1189;23466;-49
2022/03/10 06:15:43;;;;;;;;;;;;;;;0.03;55.99;101359.52;116812;1189;21973;-60
2022/03/10 06:18:12;;;;;;;16.10;9.90;;;;;;;0.04;55.84;101357.98;116834;1189;21867;-63
2022/03/10 06:20:41;;;;;;;16.50;9.60;;;;;;;0.05;55.77;101367.00;116868;1189;21964;-64
2022/03/10 06:23:11;;;;;;;11.60;7.90;;;;;;;0.06;56.02;101369.45;116734;1191;23838;-61
2022/03/10 06:25:39;;;;;;;12.90;8.70;;;;;;;0.08;56.14;101368.34;116832;1189;21855;-63
2022/03/10 06:28:09;;;;;;;15.10;9.30;;;;;;;0.10;55.85;101370.00;116831;1188;22933;-63
2022/03/10 06:30:40;;;;;;;11.70;7.70;;;;;;;0.09;55.82;101371.69;116612;1192;23749;-50
2022/03/10 06:33:12;;;;;;;13.90;8.80;;;;;;;0.12;56.04;101374.77;116665;1189;21868;-64
2022/03/10 06:35:41;;;;;;;13.20;8.10;;;;;;;0.14;56.00;101374.86;116747;1189;21879;-50
2022/03/10 06:38:12;;;;;;;14.40;9.00;;;;;;;0.14;55.93;101374.18;116766;1189;24199;-49
2022/03/10 06:40:41;;;;;;;13.00;9.00;;;;;;;0.14;55.97;101372.77;116831;1189;23451;-51
2022/03/10 06:43:09;;;;;;;13.20;7.90;;;;;;;0.15;56.05;101376.11;116863;1189;23557;-50
2022/03/10 06:45:38;;;;;;;12.90;7.60;;;;;;;0.19;55.96;101376.62;116808;1189;22646;-64
2022/03/10 06:48:10;;;;;;;17.10;8.80;;;;;;;0.24;55.97;101376.52;116845;1189;23096;-50
2022/03/10 06:50:38;;;;;;;12.90;7.70;;;;;;;0.28;56.01;101374.11;116797;1189;21858;-61
2022/03/10 06:53:07;;;;;;;11.40;7.70;;;;;;;0.34;55.79;101372.12;116812;1188;23451;-49
2022/03/10 06:55:36;;;;;;;10.00;6.80;;;;;;;0.37;56.24;101370.70;116895;1188;22962;-65
2022/03/10 06:58:05;;;;;;;13.50;7.00;;;;;;;0.42;56.28;101372.32;116859;1184;24223;-50
2022/03/10 07:00:33;;;;;;;12.50;7.50;;;;;;;0.50;56.16;101375.05;116861;1189;21856;-65
2022/03/10 07:03:02;;;;;;;13.10;7.60;;;;;;;0.54;56.29;101374.07;116816;1189;23667;-51
2022/03/10 07:05:31;;;;;;;12.90;8.60;;;;;;;0.57;56.28;101376.09;116977;1188;24233;-65
2022/03/10 07:07:59;;;;;;;16.90;10.30;;;;;;;0.60;56.25;101374.14;116840;1188;23480;-51
2022/03/10 07:10:31;;;;;;;13.30;8.70;;;;;;;0.64;56.30;101374.16;116874;1189;24126;-56
2022/03/10 07:13:00;;;;;;;16.90;8.80;;;;;;;0.66;56.05;101373.70;116824;1189;23648;-49
2022/03/10 07:15:28;;;;;;;19.00;10.50;;;;;;;0.65;55.93;101375.42;116798;1189;21866;-63
2022/03/10 07:17:57;;;;;;;14.40;9.20;;;;;;;0.66;55.82;101372.84;116781;1189;23548;-63
2022/03/10 07:20:26;;;;;;;15.50;10.00;;;;;;;0.66;55.94;101382.36;116855;1189;23488;-50
2022/03/10 07:22:54;;;;;;;13.80;9.20;;;;;;;0.69;55.96;101381.14;116716;1190;23576;-65
2022/03/10 07:25:23;;;;;;;19.00;10.40;;;;;;;0.79;56.30;101381.70;116792;1189;23464;-63
2022/03/10 07:27:52;;;;;;;15.10;9.80;;;;;;;0.82;56.53;101378.54;116794;1190;23463;-65
2022/03/10 07:30:21;;;;;;;18.50;10.60;;;;;;;0.97;56.51;101372.45;116727;1191;22652;-50
2022/03/10 07:32:49;;;;;;;20.40;10.00;;;;;;;1.10;56.72;101367.66;116954;1190;21847;-49
2022/03/10 07:35:17;;;;;;;17.10;11.50;;;;;;;1.21;56.77;101364.13;116834;1189;22539;-49
2022/03/10 07:37:49;;;;;;;16.20;11.00;;;;;;;1.40;56.94;101358.50;116860;1189;22930;-65
2022/03/10 07:40:20;;;;;;;19.00;12.40;;;;;;;1.59;56.92;101361.67;116868;1188;23585;-49
2022/03/10 07:42:49;;;;;;;12.30;8.70;;;;;;;1.77;57.15;101357.56;116884;1188;21868;-65
2022/03/10 07:45:17;;;;;;;13.00;9.60;;;;;;;1.96;57.22;101359.33;116797;1189;22653;-65
2022/03/10 07:47:47;;;;;;;17.90;11.70;;;;;;;2.13;57.35;101354.60;116790;1189;21867;-49
2022/03/10 07:50:16;;;;;;;17.40;9.70;;;;;;;2.32;57.46;101356.84;116847;1189;21860;-49
2022/03/10 07:52:44;;;;;;;16.30;10.20;;;;;;;2.43;57.12;101357.95;116846;1189;24177;-49
2022/03/10 07:55:13;;;;;;;13.90;9.50;;;;;;;2.55;57.18;101350.58;116865;1189;21854;-65
2022/03/10 07:57:43;;;;;;;12.30;8.90;;;;;;;2.65;57.13;101350.10;116744;1189;23560;-65
2022/03/10 08:00:12;;;;;;;13.50;8.70;;;;;;;2.64;56.89;101350.05;116823;1189;23449;-66
2022/03/10 08:02:41;;;;;;;13.80;8.20;;;;;;;2.55;56.72;101350.24;116812;1191;21898;-49
2022/03/10 08:05:09;;;;;;;14.80;9.00;;;;;;;2.51;56.54;101346.10;116818;1189;22935;-50
2022/03/10 08:07:39;;;;;;;14.00;8.40;;;;;;;2.55;56.80;101343.67;116876;1189;21861;-49
2022/03/10 08:10:09;;;;;;;10.80;6.70;;;;;;;2.74;57.13;101346.77;116797;1191;22925;-51
2022/03/10 08:12:38;;;;;;;14.70;8.20;;;;;;;2.92;57.09;101349.30;116833;1189;21888;-66
2022/03/10 08:15:10;;;;;;;20.20;8.80;;;;;;;2.97;56.95;101345.98;116821;1189;24247;-66
2022/03/10 08:17:40;;;;;;;13.20;7.90;;;;;;;2.99;57.33;101344.86;116854;1189;23621;-66
2022/03/10 08:20:11;;;;;;;9.50;6.60;;;;;;;3.09;57.32;101345.00;116817;1189;21877;-65
2022/03/10 08:22:42;;;;;;;8.60;6.00;;;;;;;3.07;57.06;101347.54;116847;1188;21875;-49
2022/03/10 08:25:13;;;;;;;9.50;6.00;;;;;;;3.04;56.96;101350.20;116850;1188;22986;-63
2022/03/10 08:27:41;;;;;;;8.60;5.50;;;;;;;3.02;56.88;101351.87;116725;1189;21860;-64
2022/03/10 08:30:13;;;;;;;7.80;5.90;;;;;;;2.95;56.80;101346.63;116788;1189;23512;-50
2022/03/10 08:32:45;;;;;;;10.10;6.30;;;;;;;2.87;56.70;101347.39;116865;1189;23926;-64
2022/03/10 08:35:16;;;;;;;9.20;6.40;;;;;;;2.85;56.94;101346.79;116823;1189;23494;-50
2022/03/10 08:37:44;;;;;;;10.70;5.80;;;;;;;2.94;57.00;101354.72;116871;1189;23310;-50
2022/03/10 08:40:15;;;;;;;11.50;6.90;;;;;;;2.94;56.86;101351.95;116867;1189;22944;-52
2022/03/10 08:42:44;;;;;;;11.50;6.70;;;;;;;2.86;56.56;101349.76;116814;1187;21862;-50
2022/03/10 08:45:13;;;;;;;9.80;5.80;;;;;;;2.84;56.76;101349.54;116794;1189;21925;-51
2022/03/10 08:47:42;;;;;;;9.30;5.70;;;;;;;2.92;56.98;101352.93;117590;1188;22944;-51
2022/03/10 08:50:11;;;;;;;9.40;5.80;;;;;;;3.09;57.21;101353.66;116820;1189;21888;-56
2022/03/10 08:52:41;;;;;;;8.50;5.90;;;;;;;3.32;57.35;101354.76;116880;1189;23454;-51
2022/03/10 08:55:11;;;;;;;9.70;6.70;;;;;;;3.47;57.23;101358.23;116863;1189;23454;-50
2022/03/10 08:57:43;;;;;;;9.90;7.30;;;;;;;3.59;57.33;101359.83;116806;1189;23564;-51
2022/03/10 09:00:13;;;;;;;9.60;5.80;;;;;;;3.75;57.35;101356.16;116862;1189;22698;-66
2022/03/10 09:02:44;;;;;;;14.90;6.90;;;;;;;3.82;57.22;101354.64;116793;1189;21845;-65
2022/03/10 09:05:14;;;;;;;9.30;5.80;;;;;;;3.83;57.08;101347.55;116795;1189;21858;-66
2022/03/10 09:07:43;;;;;;;8.30;5.70;;;;;;;3.81;57.12;101348.02;116882;1189;21860;-67
2022/03/10 09:10:14;;;;;;;8.70;6.00;;;;;;;3.93;57.21;101346.48;116783;1188;22932;-66
2022/03/10 09:12:46;;;;;;;10.10;6.30;;;;;;;4.02;57.09;101343.45;116816;1189;24194;-52
2022/03/10 09:15:17;;;;;;;11.00;6.40;;;;;;;4.05;56.86;101349.44;117238;1188;21853;-67
2022/03/10 09:17:46;;;;;;;11.20;7.10;;;;;;;4.06;57.01;101341.13;117144;1188;22103;-50
2022/03/10 09:20:14;;;;;;;9.70;6.40;;;;;;;4.17;57.06;101351.02;116902;1188;21868;-50
2022/03/10 09:22:43;;;;;;;9.40;6.10;;;;;;;4.18;56.96;101351.89;116857;1189;23637;-50
2022/03/10 09:25:13;;;;;;;10.70;6.40;;;;;;;4.13;56.78;101351.93;116894;1188;23599;-51
2022/03/10 09:27:42;;;;;;;9.60;6.30;;;;;;;4.11;56.82;101357.06;116905;1189;23454;-50
2022/03/10 09:30:11;;;;;;;11.10;5.90;;;;;;;3.97;56.41;101364.48;116970;1189;22175;-50
2022/03/10 09:32:44;;;;;;;8.60;5.30;;;;;;;3.78;56.33;101366.14;116887;1188;21899;-50
2022/03/10 09:35:14;;;;;;;8.80;5.60;;;;;;;3.86;56.44;101357.02;116915;1186;23579;-62
2022/03/10 09:37:43;;;;;;;7.90;5.40;;;;;;;3.98;56.71;101352.68;117003;1188;21915;-49
2022/03/10 09:40:12;;;;;;;7.60;5.30;;;;;;;4.13;56.77;101354.34;116881;1184;21857;-62
2022/03/10 09:42:40;;;;;;;7.60;5.00;;;;;;;4.30;56.79;101350.33;116772;1189;22638;-65
2022/03/10 09:45:10;;;;;;;10.90;6.50;;;;;;;4.51;56.93;101350.05;116663;1189;21857;-49
2022/03/10 09:47:40;;;;;;;9.20;5.70;;;;;;;4.59;56.57;101358.27;116813;1189;23621;-49
2022/03/10 09:50:10;;;;;;;9.60;5.70;;;;;;;4.50;56.10;101356.27;116752;1189;22931;-50
2022/03/10 09:52:40;;;;;;;8.70;5.60;;;;;;;4.28;55.88;101364.52;116861;1189;23023;-49
2022/03/10 09:55:10;;;;;;;7.20;4.60;;;;;;;4.02;55.61;101367.92;116817;1186;22929;-63
2022/03/10 09:57:41;;;;;;;10.10;5.80;;;;;;;3.79;55.71;101372.61;116832;1189;22014;-63
2022/03/10 10:00:11;;;;;;;8.30;5.60;;;;;;;3.66;55.84;101371.33;116847;1191;23478;-63
2022/03/10 10:02:42;;;;;;;10.80;6.10;;;;;;;3.78;56.31;101364.39;116786;1186;23714;-64
2022/03/10 10:05:21;;;;;;;9.60;5.70;;;;;;;4.06;56.62;101359.67;116834;1189;21861;-50
2022/03/10 10:08:01;;;;;;;11.70;6.50;;;;;;;4.51;57.22;101351.27;116901;1185;21871;-63
2022/03/10 10:10:31;;;;;;;10.00;5.60;;;;;;;4.94;57.21;101351.73;116891;1189;22998;-64
2022/03/10 10:13:27;;;;;;;9.60;5.60;;;;;;;5.05;56.59;101351.52;116835;1189;22799;-50
2022/03/10 10:15:57;;;;;;;11.60;5.20;;;;;;;5.07;56.46;101345.45;117751;1188;21857;-51
2022/03/10 10:18:27;;;;;;;10.40;6.00;;;;;;;5.18;56.43;101345.05;117355;1189;22940;-66
2022/03/10 10:21:12;;;;;;;11.90;6.20;;;;;;;5.34;56.47;101341.79;116833;1189;23491;-55
2022/03/10 10:23:41;;;;;;;9.40;5.30;;;;;;;5.41;56.30;101342.48;116852;1187;21893;-64
2022/03/10 10:26:11;;;;;;;7.70;5.30;;;;;;;5.37;56.01;101346.73;116820;1189;23643;-51
2022/03/10 10:28:47;;;;;;;11.40;7.10;;;;;;;5.34;55.68;101343.17;116814;1189;23484;-65
2022/03/10 10:31:22;;;;;;;;;;;;;;;5.19;55.60;101345.42;116837;1188;23595;-65
2022/03/10 10:34:02;;;;;;;12.50;8.10;;;;;;;4.95;55.14;101350.56;116769;1189;23499;-65
2022/03/10 10:36:33;;;;;;;13.20;7.80;;;;;;;4.66;55.19;101353.27;116783;1186;22917;-52
2022/03/10 10:39:09;;;;;;;11.40;8.10;;;;;;;4.32;54.82;101355.95;116737;1186;23563;-64
2022/03/10 10:41:43;;;;;;;13.70;8.40;;;;;;;4.14;55.31;101354.58;116768;1189;23457;-52
2022/03/10 10:44:16;;;;;;;11.80;7.70;;;;;;;4.17;55.48;101356.06;116740;1189;21858;-51
2022/03/10 10:46:46;;;;;;;12.20;7.40;;;;;;;4.22;55.43;101354.08;117788;1188;23544;-65
2022/03/10 10:49:17;;;;;;;;;;;;;;;4.22;55.41;101357.40;116871;1189;21912;-65
2022/03/10 10:51:49;;;;;;;101.90;17.40;;;;;;;4.23;55.71;101349.41;116815;1189;21870;-51
2022/03/10 10:54:19;;;;;;;18.60;7.40;;;;;;;4.47;55.96;101348.55;116802;1192;21986;-67
2022/03/10 10:56:52;;;;;;;20.70;6.80;;;;;;;4.69;56.11;101348.98;116910;1188;21904;-69
2022/03/10 10:59:36;;;;;;;11.50;6.40;;;;;;;4.73;55.70;101347.55;116827;1189;21969;-65
2022/03/10 11:02:17;;;;;;;15.30;6.80;;;;;;;4.69;55.44;101337.33;116883;1189;21854;-65
2022/03/10 11:04:51;;;;;;;9.70;6.10;;;;;;;4.81;55.90;101342.35;116824;1189;21859;-52
2022/03/10 11:07:21;;;;;;;7.80;5.40;;;;;;;4.88;55.75;101342.88;116875;1189;21835;-51
2022/03/10 11:09:52;;;;;;;7.90;5.30;;;;;;;4.83;55.61;101342.92;116861;1189;22956;-51
2022/03/10 11:12:41;;;;;;;;;;;;;;;4.98;56.39;101331.85;116763;1189;23710;-66
2022/03/10 11:15:11;;;;;;;10.50;6.70;;;;;;;5.34;56.36;101331.17;116783;1189;21860;-51
2022/03/10 11:17:40;;;;;;;11.70;7.60;;;;;;;5.48;55.84;101347.20;116723;1189;23606;-64
2022/03/10 11:20:19;;;;;;;9.10;5.80;;;;;;;5.24;55.34;101350.08;116731;1190;22910;-65
2022/03/10 11:22:59;;;;;;;10.70;6.50;;;;;;;4.85;54.56;101346.65;116479;1191;21857;-48
2022/03/10 11:25:40;;;;;;;12.30;6.10;;;;;;;4.57;55.11;101346.05;117514;1189;21807;-49
2022/03/10 11:28:15;;;;;;;10.90;6.40;;;;;;;4.56;55.18;101340.64;116753;1190;22921;-67
2022/03/10 11:30:53;;;;;;;12.10;6.50;;;;;;;4.72;55.84;101339.84;116837;1190;22637;-64
2022/03/10 11:33:31;;;;;;;9.30;6.10;;;;;;;4.89;55.64;101341.00;116810;1186;22210;-64